sensor_id;sensor_type;location;lat;lon;timestamp;P1;durP1;ratioP1;P2;durP2;ratioP2
14663;SDS011;7419;52.184;5.944;2022-08-07T00:02:57;0.57;;;0.23;;
14663;SDS011;7419;52.184;5.944;2022-08-07T00:02:58;0.76;;;0.30;;
14663;SDS011;7419;52.184;5.944;2022-08-07T00:03:03;3.35;;;0.21;;
14663;SDS011;7419;52.184;5.944;2022-08-07T00:03:20;0.27;;;0.21;;
14663;SDS011;7419;52.184;5.944;2022-08-07T00:04:20;0.70;;;0.20;;
14663;SDS011;7419;52.184;5.944;2022-08-07T00:05:20;0.35;;;0.22;;
14663;SDS011;7419;52.184;5.944;2022-08-07T00:06:20;0.58;;;0.10;;
14663;SDS011;7419;52.184;5.944;2022-08-07T00:07:20;0.94;;;0.15;;
14663;SDS011;7419;52.184;5.944;2022-08-07T00:08:20;0.33;;;0.29;;
14663;SDS011;7419;52.184;5.944;2022-08-07T00:09:21;0.31;;;0.17;;
14663;SDS011;7419;52.184;5.944;2022-08-07T00:10:21;0.27;;;0.26;;
14663;SDS011;7419;52.184;5.944;2022-08-07T00:11:21;1.29;;;0.12;;
14663;SDS011;7419;52.184;5.944;2022-08-07T00:12:21;0.20;;;0.20;;
14663;SDS011;7419;52.184;5.944;2022-08-07T00:13:21;0.12;;;0.12;;
14663;SDS011;7419;52.184;5.944;2022-08-07T00:14:21;0.71;;;0.30;;
14663;SDS011;7419;52.184;5.944;2022-08-07T00:15:21;0.21;;;0.21;;
14663;SDS011;7419;52.184;5.944;2022-08-07T00:16:21;1.80;;;0.30;;
14663;SDS011;7419;52.184;5.944;2022-08-07T00:17:21;0.19;;;0.19;;
14663;SDS011;7419;52.184;5.944;2022-08-07T00:18:23;0.85;;;0.22;;
14663;SDS011;7419;52.184;5.944;2022-08-07T00:19:21;0.42;;;0.32;;
14663;SDS011;7419;52.184;5.944;2022-08-07T00:20:21;3.51;;;0.38;;
14663;SDS011;7419;52.184;5.944;2022-08-07T00:21:21;0.38;;;0.29;;
14663;SDS011;7419;52.184;5.944;2022-08-07T00:22:21;0.19;;;0.16;;
14663;SDS011;7419;52.184;5.944;2022-08-07T00:23:21;0.14;;;0.14;;
14663;SDS011;7419;52.184;5.944;2022-08-07T00:24:21;1.11;;;0.20;;
14663;SDS011;7419;52.184;5.944;2022-08-07T00:25:21;0.20;;;0.10;;
14663;SDS011;7419;52.184;5.944;2022-08-07T00:26:22;0.21;;;0.20;;
14663;SDS011;7419;52.184;5.944;2022-08-07T00:27:22;0.67;;;0.17;;
14663;SDS011;7419;52.184;5.944;2022-08-07T00:28:22;0.39;;;0.35;;
14663;SDS011;7419;52.184;5.944;2022-08-07T00:29:22;0.70;;;0.39;;
14663;SDS011;7419;52.184;5.944;2022-08-07T00:30:22;0.15;;;0.11;;
14663;SDS011;7419;52.184;5.944;2022-08-07T00:31:22;0.43;;;0.21;;
14663;SDS011;7419;52.184;5.944;2022-08-07T00:32:22;0.24;;;0.24;;
14663;SDS011;7419;52.184;5.944;2022-08-07T00:33:22;0.81;;;0.22;;
14663;SDS011;7419;52.184;5.944;2022-08-07T00:34:22;0.29;;;0.16;;
14663;SDS011;7419;52.184;5.944;2022-08-07T00:35:22;0.51;;;0.17;;
14663;SDS011;7419;52.184;5.944;2022-08-07T00:36:22;1.43;;;0.18;;
14663;SDS011;7419;52.184;5.944;2022-08-07T00:37:22;0.98;;;0.33;;
14663;SDS011;7419;52.184;5.944;2022-08-07T00:38:22;0.19;;;0.19;;
14663;SDS011;7419;52.184;5.944;2022-08-07T00:39:22;0.96;;;0.24;;
14663;SDS011;7419;52.184;5.944;2022-08-07T00:40:22;0.60;;;0.33;;
14663;SDS011;7419;52.184;5.944;2022-08-07T00:41:24;0.29;;;0.20;;
14663;SDS011;7419;52.184;5.944;2022-08-07T00:42:22;0.46;;;0.24;;
14663;SDS011;7419;52.184;5.944;2022-08-07T00:43:23;0.25;;;0.23;;
14663;SDS011;7419;52.184;5.944;2022-08-07T00:44:23;0.32;;;0.32;;
14663;SDS011;7419;52.184;5.944;2022-08-07T00:45:23;0.43;;;0.20;;
14663;SDS011;7419;52.184;5.944;2022-08-07T00:46:23;0.67;;;0.16;;
14663;SDS011;7419;52.184;5.944;2022-08-07T00:47:23;0.99;;;0.16;;
14663;SDS011;7419;52.184;5.944;2022-08-07T00:48:23;0.86;;;0.50;;
14663;SDS011;7419;52.184;5.944;2022-08-07T00:49:23;0.51;;;0.30;;
14663;SDS011;7419;52.184;5.944;2022-08-07T00:50:23;1.39;;;0.27;;
14663;SDS011;7419;52.184;5.944;2022-08-07T00:51:23;0.94;;;0.31;;
14663;SDS011;7419;52.184;5.944;2022-08-07T00:52:23;0.50;;;0.25;;
14663;SDS011;7419;52.184;5.944;2022-08-07T00:53:23;0.54;;;0.21;;
14663;SDS011;7419;52.184;5.944;2022-08-07T00:54:23;0.12;;;0.12;;
14663;SDS011;7419;52.184;5.944;2022-08-07T00:55:23;1.15;;;0.41;;
14663;SDS011;7419;52.184;5.944;2022-08-07T00:56:23;0.72;;;0.37;;
14663;SDS011;7419;52.184;5.944;2022-08-07T00:57:24;0.37;;;0.22;;
14663;SDS011;7419;52.184;5.944;2022-08-07T00:58:23;0.38;;;0.38;;
14663;SDS011;7419;52.184;5.944;2022-08-07T00:59:24;1.75;;;0.52;;
14663;SDS011;7419;52.184;5.944;2022-08-07T01:00:24;0.75;;;0.32;;
14663;SDS011;7419;52.184;5.944;2022-08-07T01:01:24;0.55;;;0.48;;
14663;SDS011;7419;52.184;5.944;2022-08-07T01:02:24;0.73;;;0.37;;
14663;SDS011;7419;52.184;5.944;2022-08-07T01:03:24;0.54;;;0.28;;
14663;SDS011;7419;52.184;5.944;2022-08-07T01:04:24;1.14;;;0.41;;
14663;SDS011;7419;52.184;5.944;2022-08-07T01:05:24;0.44;;;0.38;;
14663;SDS011;7419;52.184;5.944;2022-08-07T01:06:24;0.32;;;0.32;;
14663;SDS011;7419;52.184;5.944;2022-08-07T01:07:25;1.14;;;0.34;;
14663;SDS011;7419;52.184;5.944;2022-08-07T01:08:24;0.49;;;0.20;;
14663;SDS011;7419;52.184;5.944;2022-08-07T01:09:24;0.56;;;0.43;;
14663;SDS011;7419;52.184;5.944;2022-08-07T01:10:24;0.41;;;0.20;;
14663;SDS011;7419;52.184;5.944;2022-08-07T01:11:25;0.87;;;0.32;;
14663;SDS011;7419;52.184;5.944;2022-08-07T01:12:24;0.13;;;0.13;;
14663;SDS011;7419;52.184;5.944;2022-08-07T01:13:24;0.37;;;0.33;;
14663;SDS011;7419;52.184;5.944;2022-08-07T01:14:25;0.49;;;0.36;;
14663;SDS011;7419;52.184;5.944;2022-08-07T01:15:25;0.40;;;0.36;;
14663;SDS011;7419;52.184;5.944;2022-08-07T01:16:25;1.80;;;0.25;;
14663;SDS011;7419;52.184;5.944;2022-08-07T01:17:25;0.36;;;0.36;;
14663;SDS011;7419;52.184;5.944;2022-08-07T01:18:25;0.20;;;0.19;;
14663;SDS011;7419;52.184;5.944;2022-08-07T01:19:25;0.71;;;0.20;;
14663;SDS011;7419;52.184;5.944;2022-08-07T01:20:30;0.67;;;0.21;;
14663;SDS011;7419;52.184;5.944;2022-08-07T01:21:25;0.24;;;0.24;;
14663;SDS011;7419;52.184;5.944;2022-08-07T01:22:25;0.27;;;0.23;;
14663;SDS011;7419;52.184;5.944;2022-08-07T01:23:25;0.26;;;0.16;;
14663;SDS011;7419;52.184;5.944;2022-08-07T01:24:25;0.35;;;0.35;;
14663;SDS011;7419;52.184;5.944;2022-08-07T01:25:25;0.41;;;0.41;;
14663;SDS011;7419;52.184;5.944;2022-08-07T01:26:25;0.28;;;0.26;;
14663;SDS011;7419;52.184;5.944;2022-08-07T01:27:25;0.20;;;0.20;;
14663;SDS011;7419;52.184;5.944;2022-08-07T01:28:26;0.28;;;0.18;;
14663;SDS011;7419;52.184;5.944;2022-08-07T01:29:26;0.56;;;0.56;;
14663;SDS011;7419;52.184;5.944;2022-08-07T01:30:26;0.50;;;0.30;;
14663;SDS011;7419;52.184;5.944;2022-08-07T01:31:26;0.21;;;0.21;;
14663;SDS011;7419;52.184;5.944;2022-08-07T01:32:26;1.82;;;0.26;;
14663;SDS011;7419;52.184;5.944;2022-08-07T01:33:26;2.64;;;0.73;;
14663;SDS011;7419;52.184;5.944;2022-08-07T01:34:29;1.14;;;0.20;;
14663;SDS011;7419;52.184;5.944;2022-08-07T01:35:26;0.47;;;0.29;;
14663;SDS011;7419;52.184;5.944;2022-08-07T01:36:27;0.19;;;0.19;;
14663;SDS011;7419;52.184;5.944;2022-08-07T01:37:26;0.33;;;0.29;;
14663;SDS011;7419;52.184;5.944;2022-08-07T01:38:26;0.52;;;0.18;;
14663;SDS011;7419;52.184;5.944;2022-08-07T01:39:27;0.56;;;0.27;;
14663;SDS011;7419;52.184;5.944;2022-08-07T01:40:26;0.30;;;0.30;;
14663;SDS011;7419;52.184;5.944;2022-08-07T01:41:26;0.65;;;0.33;;
14663;SDS011;7419;52.184;5.944;2022-08-07T01:42:26;0.90;;;0.36;;
14663;SDS011;7419;52.184;5.944;2022-08-07T01:43:27;0.20;;;0.20;;
14663;SDS011;7419;52.184;5.944;2022-08-07T01:44:26;0.38;;;0.28;;
14663;SDS011;7419;52.184;5.944;2022-08-07T01:45:27;0.26;;;0.22;;
14663;SDS011;7419;52.184;5.944;2022-08-07T01:46:27;0.32;;;0.27;;
14663;SDS011;7419;52.184;5.944;2022-08-07T01:47:27;0.65;;;0.20;;
14663;SDS011;7419;52.184;5.944;2022-08-07T01:48:28;0.69;;;0.37;;
14663;SDS011;7419;52.184;5.944;2022-08-07T01:49:27;0.29;;;0.20;;
14663;SDS011;7419;52.184;5.944;2022-08-07T01:50:27;0.28;;;0.28;;
14663;SDS011;7419;52.184;5.944;2022-08-07T01:51:27;0.54;;;0.36;;
14663;SDS011;7419;52.184;5.944;2022-08-07T01:52:27;0.53;;;0.41;;
14663;SDS011;7419;52.184;5.944;2022-08-07T01:53:27;0.14;;;0.14;;
14663;SDS011;7419;52.184;5.944;2022-08-07T01:54:27;0.71;;;0.40;;
14663;SDS011;7419;52.184;5.944;2022-08-07T01:55:28;0.43;;;0.37;;
14663;SDS011;7419;52.184;5.944;2022-08-07T01:56:29;0.82;;;0.28;;
14663;SDS011;7419;52.184;5.944;2022-08-07T01:57:27;0.36;;;0.36;;
14663;SDS011;7419;52.184;5.944;2022-08-07T01:58:29;0.32;;;0.20;;
14663;SDS011;7419;52.184;5.944;2022-08-07T01:59:29;0.33;;;0.30;;
14663;SDS011;7419;52.184;5.944;2022-08-07T02:00:28;0.30;;;0.26;;
14663;SDS011;7419;52.184;5.944;2022-08-07T02:01:30;0.66;;;0.42;;
14663;SDS011;7419;52.184;5.944;2022-08-07T02:02:29;0.43;;;0.38;;
14663;SDS011;7419;52.184;5.944;2022-08-07T02:03:27;0.40;;;0.40;;
14663;SDS011;7419;52.184;5.944;2022-08-07T02:04:29;0.75;;;0.39;;
14663;SDS011;7419;52.184;5.944;2022-08-07T02:05:29;0.26;;;0.21;;
14663;SDS011;7419;52.184;5.944;2022-08-07T02:06:29;0.66;;;0.40;;
14663;SDS011;7419;52.184;5.944;2022-08-07T02:07:29;0.45;;;0.45;;
14663;SDS011;7419;52.184;5.944;2022-08-07T02:08:28;0.44;;;0.44;;
14663;SDS011;7419;52.184;5.944;2022-08-07T02:09:28;0.63;;;0.34;;
14663;SDS011;7419;52.184;5.944;2022-08-07T02:10:28;0.66;;;0.28;;
14663;SDS011;7419;52.184;5.944;2022-08-07T02:11:28;0.81;;;0.23;;
14663;SDS011;7419;52.184;5.944;2022-08-07T02:12:29;0.42;;;0.42;;
14663;SDS011;7419;52.184;5.944;2022-08-07T02:13:29;0.47;;;0.39;;
14663;SDS011;7419;52.184;5.944;2022-08-07T02:14:28;0.43;;;0.43;;
14663;SDS011;7419;52.184;5.944;2022-08-07T02:15:28;1.56;;;0.36;;
14663;SDS011;7419;52.184;5.944;2022-08-07T02:16:28;0.60;;;0.33;;
14663;SDS011;7419;52.184;5.944;2022-08-07T02:17:28;0.53;;;0.31;;
14663;SDS011;7419;52.184;5.944;2022-08-07T02:18:30;0.60;;;0.30;;
14663;SDS011;7419;52.184;5.944;2022-08-07T02:19:28;0.74;;;0.24;;
14663;SDS011;7419;52.184;5.944;2022-08-07T02:20:29;0.47;;;0.31;;
14663;SDS011;7419;52.184;5.944;2022-08-07T02:21:28;2.26;;;0.40;;
14663;SDS011;7419;52.184;5.944;2022-08-07T02:22:29;0.82;;;0.46;;
14663;SDS011;7419;52.184;5.944;2022-08-07T02:23:29;1.14;;;0.50;;
14663;SDS011;7419;52.184;5.944;2022-08-07T02:24:29;0.61;;;0.53;;
14663;SDS011;7419;52.184;5.944;2022-08-07T02:25:31;1.22;;;0.47;;
14663;SDS011;7419;52.184;5.944;2022-08-07T02:26:29;0.67;;;0.30;;
14663;SDS011;7419;52.184;5.944;2022-08-07T02:27:29;0.41;;;0.30;;
14663;SDS011;7419;52.184;5.944;2022-08-07T02:28:29;0.99;;;0.30;;
14663;SDS011;7419;52.184;5.944;2022-08-07T02:29:29;0.45;;;0.34;;
14663;SDS011;7419;52.184;5.944;2022-08-07T02:30:29;1.35;;;0.40;;
14663;SDS011;7419;52.184;5.944;2022-08-07T02:31:29;0.54;;;0.26;;
14663;SDS011;7419;52.184;5.944;2022-08-07T02:32:29;1.07;;;0.36;;
14663;SDS011;7419;52.184;5.944;2022-08-07T02:33:29;0.62;;;0.43;;
14663;SDS011;7419;52.184;5.944;2022-08-07T02:34:29;0.44;;;0.32;;
14663;SDS011;7419;52.184;5.944;2022-08-07T02:35:29;0.94;;;0.30;;
14663;SDS011;7419;52.184;5.944;2022-08-07T02:36:29;0.64;;;0.53;;
14663;SDS011;7419;52.184;5.944;2022-08-07T02:37:29;0.33;;;0.33;;
14663;SDS011;7419;52.184;5.944;2022-08-07T02:38:34;0.52;;;0.52;;
14663;SDS011;7419;52.184;5.944;2022-08-07T02:39:29;0.84;;;0.49;;
14663;SDS011;7419;52.184;5.944;2022-08-07T02:40:29;0.99;;;0.57;;
14663;SDS011;7419;52.184;5.944;2022-08-07T02:41:30;0.82;;;0.40;;
14663;SDS011;7419;52.184;5.944;2022-08-07T02:42:30;1.46;;;0.39;;
14663;SDS011;7419;52.184;5.944;2022-08-07T02:43:30;0.44;;;0.44;;
14663;SDS011;7419;52.184;5.944;2022-08-07T02:44:30;0.32;;;0.31;;
14663;SDS011;7419;52.184;5.944;2022-08-07T02:45:30;0.84;;;0.38;;
14663;SDS011;7419;52.184;5.944;2022-08-07T02:46:30;0.42;;;0.42;;
14663;SDS011;7419;52.184;5.944;2022-08-07T02:47:30;1.28;;;0.38;;
14663;SDS011;7419;52.184;5.944;2022-08-07T02:48:30;0.65;;;0.37;;
14663;SDS011;7419;52.184;5.944;2022-08-07T02:49:30;0.51;;;0.48;;
14663;SDS011;7419;52.184;5.944;2022-08-07T02:50:30;0.52;;;0.49;;
14663;SDS011;7419;52.184;5.944;2022-08-07T02:51:31;1.17;;;0.62;;
14663;SDS011;7419;52.184;5.944;2022-08-07T02:52:31;0.58;;;0.28;;
14663;SDS011;7419;52.184;5.944;2022-08-07T02:53:31;0.51;;;0.41;;
14663;SDS011;7419;52.184;5.944;2022-08-07T02:54:31;0.73;;;0.29;;
14663;SDS011;7419;52.184;5.944;2022-08-07T02:55:30;0.39;;;0.39;;
14663;SDS011;7419;52.184;5.944;2022-08-07T02:56:30;0.53;;;0.49;;
14663;SDS011;7419;52.184;5.944;2022-08-07T02:57:30;1.75;;;0.43;;
14663;SDS011;7419;52.184;5.944;2022-08-07T02:58:31;0.57;;;0.55;;
14663;SDS011;7419;52.184;5.944;2022-08-07T02:59:30;0.88;;;0.60;;
14663;SDS011;7419;52.184;5.944;2022-08-07T03:00:32;0.61;;;0.28;;
14663;SDS011;7419;52.184;5.944;2022-08-07T03:01:31;0.47;;;0.38;;
14663;SDS011;7419;52.184;5.944;2022-08-07T03:02:31;1.00;;;0.46;;
14663;SDS011;7419;52.184;5.944;2022-08-07T03:03:32;1.82;;;0.56;;
14663;SDS011;7419;52.184;5.944;2022-08-07T03:04:31;0.47;;;0.46;;
14663;SDS011;7419;52.184;5.944;2022-08-07T03:05:31;0.97;;;0.54;;
14663;SDS011;7419;52.184;5.944;2022-08-07T03:06:31;0.99;;;0.27;;
14663;SDS011;7419;52.184;5.944;2022-08-07T03:07:31;0.87;;;0.41;;
14663;SDS011;7419;52.184;5.944;2022-08-07T03:08:31;0.69;;;0.34;;
14663;SDS011;7419;52.184;5.944;2022-08-07T03:09:31;0.92;;;0.41;;
14663;SDS011;7419;52.184;5.944;2022-08-07T03:10:31;0.68;;;0.50;;
14663;SDS011;7419;52.184;5.944;2022-08-07T03:11:32;0.60;;;0.60;;
14663;SDS011;7419;52.184;5.944;2022-08-07T03:12:31;0.54;;;0.53;;
14663;SDS011;7419;52.184;5.944;2022-08-07T03:13:31;0.39;;;0.37;;
14663;SDS011;7419;52.184;5.944;2022-08-07T03:14:31;0.81;;;0.57;;
14663;SDS011;7419;52.184;5.944;2022-08-07T03:15:31;1.48;;;0.52;;
14663;SDS011;7419;52.184;5.944;2022-08-07T03:16:31;0.95;;;0.40;;
14663;SDS011;7419;52.184;5.944;2022-08-07T03:17:31;0.36;;;0.36;;
14663;SDS011;7419;52.184;5.944;2022-08-07T03:18:31;0.70;;;0.57;;
14663;SDS011;7419;52.184;5.944;2022-08-07T03:19:32;0.43;;;0.43;;
14663;SDS011;7419;52.184;5.944;2022-08-07T03:20:32;0.58;;;0.48;;
14663;SDS011;7419;52.184;5.944;2022-08-07T03:21:32;0.54;;;0.54;;
14663;SDS011;7419;52.184;5.944;2022-08-07T03:22:32;0.76;;;0.54;;
14663;SDS011;7419;52.184;5.944;2022-08-07T03:23:32;0.86;;;0.49;;
14663;SDS011;7419;52.184;5.944;2022-08-07T03:24:32;0.41;;;0.38;;
14663;SDS011;7419;52.184;5.944;2022-08-07T03:25:32;0.69;;;0.52;;
14663;SDS011;7419;52.184;5.944;2022-08-07T03:26:32;0.55;;;0.50;;
14663;SDS011;7419;52.184;5.944;2022-08-07T03:27:32;0.82;;;0.47;;
14663;SDS011;7419;52.184;5.944;2022-08-07T03:28:32;1.94;;;0.67;;
14663;SDS011;7419;52.184;5.944;2022-08-07T03:29:33;0.63;;;0.55;;
14663;SDS011;7419;52.184;5.944;2022-08-07T03:30:32;0.67;;;0.49;;
14663;SDS011;7419;52.184;5.944;2022-08-07T03:31:32;1.30;;;0.55;;
14663;SDS011;7419;52.184;5.944;2022-08-07T03:32:33;0.43;;;0.40;;
14663;SDS011;7419;52.184;5.944;2022-08-07T03:33:32;0.77;;;0.60;;
14663;SDS011;7419;52.184;5.944;2022-08-07T03:34:33;1.10;;;0.74;;
14663;SDS011;7419;52.184;5.944;2022-08-07T03:35:33;0.73;;;0.53;;
14663;SDS011;7419;52.184;5.944;2022-08-07T03:36:33;0.67;;;0.51;;
14663;SDS011;7419;52.184;5.944;2022-08-07T03:37:33;0.65;;;0.39;;
14663;SDS011;7419;52.184;5.944;2022-08-07T03:38:33;1.27;;;0.59;;
14663;SDS011;7419;52.184;5.944;2022-08-07T03:39:33;0.89;;;0.58;;
14663;SDS011;7419;52.184;5.944;2022-08-07T03:40:33;1.04;;;0.53;;
14663;SDS011;7419;52.184;5.944;2022-08-07T03:41:33;0.65;;;0.40;;
14663;SDS011;7419;52.184;5.944;2022-08-07T03:42:33;1.85;;;0.60;;
14663;SDS011;7419;52.184;5.944;2022-08-07T03:43:33;0.67;;;0.54;;
14663;SDS011;7419;52.184;5.944;2022-08-07T03:44:33;1.07;;;0.59;;
14663;SDS011;7419;52.184;5.944;2022-08-07T03:45:33;0.88;;;0.52;;
14663;SDS011;7419;52.184;5.944;2022-08-07T03:46:33;0.40;;;0.38;;
14663;SDS011;7419;52.184;5.944;2022-08-07T03:47:33;0.63;;;0.45;;
14663;SDS011;7419;52.184;5.944;2022-08-07T03:48:33;0.85;;;0.47;;
14663;SDS011;7419;52.184;5.944;2022-08-07T03:49:33;1.58;;;0.52;;
14663;SDS011;7419;52.184;5.944;2022-08-07T03:50:33;0.61;;;0.56;;
14663;SDS011;7419;52.184;5.944;2022-08-07T03:51:33;1.23;;;0.63;;
14663;SDS011;7419;52.184;5.944;2022-08-07T03:52:33;0.40;;;0.40;;
14663;SDS011;7419;52.184;5.944;2022-08-07T03:53:33;1.46;;;0.50;;
14663;SDS011;7419;52.184;5.944;2022-08-07T03:54:34;0.63;;;0.55;;
14663;SDS011;7419;52.184;5.944;2022-08-07T03:55:34;0.96;;;0.64;;
14663;SDS011;7419;52.184;5.944;2022-08-07T03:56:34;1.34;;;0.70;;
14663;SDS011;7419;52.184;5.944;2022-08-07T03:57:34;1.13;;;0.51;;
14663;SDS011;7419;52.184;5.944;2022-08-07T03:58:34;0.74;;;0.58;;
14663;SDS011;7419;52.184;5.944;2022-08-07T03:59:34;0.68;;;0.65;;
14663;SDS011;7419;52.184;5.944;2022-08-07T04:00:34;1.14;;;0.44;;
14663;SDS011;7419;52.184;5.944;2022-08-07T04:01:34;1.08;;;0.63;;
14663;SDS011;7419;52.184;5.944;2022-08-07T04:02:34;1.57;;;0.56;;
14663;SDS011;7419;52.184;5.944;2022-08-07T04:03:34;1.97;;;0.59;;
14663;SDS011;7419;52.184;5.944;2022-08-07T04:04:34;0.69;;;0.51;;
14663;SDS011;7419;52.184;5.944;2022-08-07T04:05:34;0.53;;;0.48;;
14663;SDS011;7419;52.184;5.944;2022-08-07T04:06:35;0.53;;;0.42;;
14663;SDS011;7419;52.184;5.944;2022-08-07T04:07:34;0.68;;;0.50;;
14663;SDS011;7419;52.184;5.944;2022-08-07T04:08:35;1.90;;;0.73;;
14663;SDS011;7419;52.184;5.944;2022-08-07T04:09:34;1.11;;;0.69;;
14663;SDS011;7419;52.184;5.944;2022-08-07T04:10:34;0.72;;;0.63;;
14663;SDS011;7419;52.184;5.944;2022-08-07T04:11:35;0.86;;;0.63;;
14663;SDS011;7419;52.184;5.944;2022-08-07T04:12:35;0.41;;;0.35;;
14663;SDS011;7419;52.184;5.944;2022-08-07T04:13:35;1.75;;;0.89;;
14663;SDS011;7419;52.184;5.944;2022-08-07T04:14:35;0.57;;;0.57;;
14663;SDS011;7419;52.184;5.944;2022-08-07T04:15:35;1.00;;;0.75;;
14663;SDS011;7419;52.184;5.944;2022-08-07T04:16:35;0.89;;;0.72;;
14663;SDS011;7419;52.184;5.944;2022-08-07T04:17:35;0.85;;;0.59;;
14663;SDS011;7419;52.184;5.944;2022-08-07T04:18:35;1.22;;;0.64;;
14663;SDS011;7419;52.184;5.944;2022-08-07T04:19:35;0.78;;;0.70;;
14663;SDS011;7419;52.184;5.944;2022-08-07T04:20:35;0.73;;;0.73;;
14663;SDS011;7419;52.184;5.944;2022-08-07T04:21:35;0.76;;;0.61;;
14663;SDS011;7419;52.184;5.944;2022-08-07T04:22:35;2.07;;;0.78;;
14663;SDS011;7419;52.184;5.944;2022-08-07T04:23:35;1.22;;;0.65;;
14663;SDS011;7419;52.184;5.944;2022-08-07T04:24:35;0.66;;;0.54;;
14663;SDS011;7419;52.184;5.944;2022-08-07T04:25:36;0.83;;;0.68;;
14663;SDS011;7419;52.184;5.944;2022-08-07T04:26:36;0.90;;;0.69;;
14663;SDS011;7419;52.184;5.944;2022-08-07T04:27:36;0.80;;;0.60;;
14663;SDS011;7419;52.184;5.944;2022-08-07T04:28:36;2.82;;;0.66;;
14663;SDS011;7419;52.184;5.944;2022-08-07T04:29:36;0.83;;;0.73;;
14663;SDS011;7419;52.184;5.944;2022-08-07T04:30:36;0.65;;;0.58;;
14663;SDS011;7419;52.184;5.944;2022-08-07T04:31:36;1.03;;;0.87;;
14663;SDS011;7419;52.184;5.944;2022-08-07T04:32:36;1.11;;;1.05;;
14663;SDS011;7419;52.184;5.944;2022-08-07T04:33:36;1.15;;;1.07;;
14663;SDS011;7419;52.184;5.944;2022-08-07T04:34:36;1.12;;;0.78;;
14663;SDS011;7419;52.184;5.944;2022-08-07T04:35:36;0.77;;;0.58;;
14663;SDS011;7419;52.184;5.944;2022-08-07T04:36:36;3.72;;;0.86;;
14663;SDS011;7419;52.184;5.944;2022-08-07T04:37:36;0.99;;;0.75;;
14663;SDS011;7419;52.184;5.944;2022-08-07T04:38:36;0.68;;;0.61;;
14663;SDS011;7419;52.184;5.944;2022-08-07T04:39:36;0.50;;;0.49;;
14663;SDS011;7419;52.184;5.944;2022-08-07T04:40:38;0.74;;;0.74;;
14663;SDS011;7419;52.184;5.944;2022-08-07T04:41:36;1.56;;;0.69;;
14663;SDS011;7419;52.184;5.944;2022-08-07T04:42:36;0.87;;;0.83;;
14663;SDS011;7419;52.184;5.944;2022-08-07T04:43:37;0.61;;;0.61;;
14663;SDS011;7419;52.184;5.944;2022-08-07T04:44:37;0.65;;;0.61;;
14663;SDS011;7419;52.184;5.944;2022-08-07T04:45:39;0.92;;;0.72;;
14663;SDS011;7419;52.184;5.944;2022-08-07T04:46:38;1.56;;;0.84;;
14663;SDS011;7419;52.184;5.944;2022-08-07T04:47:40;0.88;;;0.74;;
14663;SDS011;7419;52.184;5.944;2022-08-07T04:48:40;1.65;;;0.64;;
14663;SDS011;7419;52.184;5.944;2022-08-07T04:49:39;2.49;;;0.95;;
14663;SDS011;7419;52.184;5.944;2022-08-07T04:50:38;1.18;;;0.78;;
14663;SDS011;7419;52.184;5.944;2022-08-07T04:51:39;0.78;;;0.77;;
14663;SDS011;7419;52.184;5.944;2022-08-07T04:52:38;1.37;;;0.89;;
14663;SDS011;7419;52.184;5.944;2022-08-07T04:53:38;0.99;;;0.57;;
14663;SDS011;7419;52.184;5.944;2022-08-07T04:54:38;1.18;;;1.00;;
14663;SDS011;7419;52.184;5.944;2022-08-07T04:55:40;1.62;;;0.95;;
14663;SDS011;7419;52.184;5.944;2022-08-07T04:56:41;2.33;;;0.94;;
14663;SDS011;7419;52.184;5.944;2022-08-07T04:57:40;1.33;;;1.24;;
14663;SDS011;7419;52.184;5.944;2022-08-07T04:58:39;1.21;;;0.98;;
14663;SDS011;7419;52.184;5.944;2022-08-07T04:59:39;1.01;;;0.62;;
14663;SDS011;7419;52.184;5.944;2022-08-07T05:00:40;0.85;;;0.65;;
14663;SDS011;7419;52.184;5.944;2022-08-07T05:01:39;1.34;;;0.63;;
14663;SDS011;7419;52.184;5.944;2022-08-07T05:02:40;1.36;;;0.76;;
14663;SDS011;7419;52.184;5.944;2022-08-07T05:03:39;1.62;;;1.12;;
14663;SDS011;7419;52.184;5.944;2022-08-07T05:04:39;1.58;;;0.74;;
14663;SDS011;7419;52.184;5.944;2022-08-07T05:05:39;0.92;;;0.92;;
14663;SDS011;7419;52.184;5.944;2022-08-07T05:06:41;0.82;;;0.75;;
14663;SDS011;7419;52.184;5.944;2022-08-07T05:07:39;1.07;;;0.90;;
14663;SDS011;7419;52.184;5.944;2022-08-07T05:08:40;1.15;;;0.74;;
14663;SDS011;7419;52.184;5.944;2022-08-07T05:09:41;1.27;;;1.03;;
14663;SDS011;7419;52.184;5.944;2022-08-07T05:10:39;1.30;;;0.56;;
14663;SDS011;7419;52.184;5.944;2022-08-07T05:11:39;0.89;;;0.82;;
14663;SDS011;7419;52.184;5.944;2022-08-07T05:12:40;0.83;;;0.83;;
14663;SDS011;7419;52.184;5.944;2022-08-07T05:13:42;1.10;;;0.72;;
14663;SDS011;7419;52.184;5.944;2022-08-07T05:14:39;0.85;;;0.85;;
14663;SDS011;7419;52.184;5.944;2022-08-07T05:15:39;1.76;;;0.98;;
14663;SDS011;7419;52.184;5.944;2022-08-07T05:16:39;1.07;;;0.77;;
14663;SDS011;7419;52.184;5.944;2022-08-07T05:17:38;1.15;;;0.84;;
14663;SDS011;7419;52.184;5.944;2022-08-07T05:18:40;1.14;;;0.78;;
14663;SDS011;7419;52.184;5.944;2022-08-07T05:19:39;1.23;;;0.85;;
14663;SDS011;7419;52.184;5.944;2022-08-07T05:20:39;1.18;;;0.94;;
14663;SDS011;7419;52.184;5.944;2022-08-07T05:21:39;0.80;;;0.70;;
14663;SDS011;7419;52.184;5.944;2022-08-07T05:22:39;1.25;;;0.73;;
14663;SDS011;7419;52.184;5.944;2022-08-07T05:23:40;1.34;;;0.91;;
14663;SDS011;7419;52.184;5.944;2022-08-07T05:24:39;1.14;;;0.85;;
14663;SDS011;7419;52.184;5.944;2022-08-07T05:25:39;1.15;;;0.77;;
14663;SDS011;7419;52.184;5.944;2022-08-07T05:26:39;1.02;;;0.86;;
14663;SDS011;7419;52.184;5.944;2022-08-07T05:27:39;3.83;;;1.55;;
14663;SDS011;7419;52.184;5.944;2022-08-07T05:28:39;1.46;;;0.63;;
14663;SDS011;7419;52.184;5.944;2022-08-07T05:29:39;1.64;;;0.93;;
14663;SDS011;7419;52.184;5.944;2022-08-07T05:30:39;1.97;;;1.11;;
14663;SDS011;7419;52.184;5.944;2022-08-07T05:31:40;1.46;;;1.05;;
14663;SDS011;7419;52.184;5.944;2022-08-07T05:32:39;1.46;;;1.08;;
14663;SDS011;7419;52.184;5.944;2022-08-07T05:33:39;1.89;;;1.05;;
14663;SDS011;7419;52.184;5.944;2022-08-07T05:34:39;2.05;;;1.13;;
14663;SDS011;7419;52.184;5.944;2022-08-07T05:35:39;2.57;;;1.14;;
14663;SDS011;7419;52.184;5.944;2022-08-07T05:36:41;1.67;;;1.09;;
14663;SDS011;7419;52.184;5.944;2022-08-07T05:37:40;1.20;;;0.96;;
14663;SDS011;7419;52.184;5.944;2022-08-07T05:38:40;2.24;;;0.87;;
14663;SDS011;7419;52.184;5.944;2022-08-07T05:39:40;1.89;;;1.33;;
14663;SDS011;7419;52.184;5.944;2022-08-07T05:40:40;1.24;;;1.01;;
14663;SDS011;7419;52.184;5.944;2022-08-07T05:41:40;1.72;;;0.76;;
14663;SDS011;7419;52.184;5.944;2022-08-07T05:42:40;2.08;;;1.14;;
14663;SDS011;7419;52.184;5.944;2022-08-07T05:43:40;2.02;;;1.09;;
14663;SDS011;7419;52.184;5.944;2022-08-07T05:44:40;1.09;;;0.97;;
14663;SDS011;7419;52.184;5.944;2022-08-07T05:45:40;2.01;;;1.01;;
14663;SDS011;7419;52.184;5.944;2022-08-07T05:46:40;1.26;;;1.02;;
14663;SDS011;7419;52.184;5.944;2022-08-07T05:47:40;1.38;;;0.88;;
14663;SDS011;7419;52.184;5.944;2022-08-07T05:48:40;1.53;;;1.10;;
14663;SDS011;7419;52.184;5.944;2022-08-07T05:49:40;1.69;;;1.15;;
14663;SDS011;7419;52.184;5.944;2022-08-07T05:50:40;1.36;;;0.75;;
14663;SDS011;7419;52.184;5.944;2022-08-07T05:51:40;1.69;;;1.17;;
14663;SDS011;7419;52.184;5.944;2022-08-07T05:52:40;1.35;;;1.22;;
14663;SDS011;7419;52.184;5.944;2022-08-07T05:53:40;1.58;;;1.01;;
14663;SDS011;7419;52.184;5.944;2022-08-07T05:54:40;1.72;;;1.05;;
14663;SDS011;7419;52.184;5.944;2022-08-07T05:55:41;1.22;;;1.08;;
14663;SDS011;7419;52.184;5.944;2022-08-07T05:56:41;1.62;;;1.31;;
14663;SDS011;7419;52.184;5.944;2022-08-07T05:57:41;1.36;;;1.26;;
14663;SDS011;7419;52.184;5.944;2022-08-07T05:58:41;2.41;;;1.30;;
14663;SDS011;7419;52.184;5.944;2022-08-07T05:59:41;1.22;;;1.00;;
14663;SDS011;7419;52.184;5.944;2022-08-07T06:00:41;1.91;;;1.13;;
14663;SDS011;7419;52.184;5.944;2022-08-07T06:01:41;3.02;;;1.29;;
14663;SDS011;7419;52.184;5.944;2022-08-07T06:02:41;1.82;;;1.35;;
14663;SDS011;7419;52.184;5.944;2022-08-07T06:03:47;1.72;;;1.16;;
14663;SDS011;7419;52.184;5.944;2022-08-07T06:04:44;1.61;;;1.42;;
14663;SDS011;7419;52.184;5.944;2022-08-07T06:05:41;1.94;;;1.32;;
14663;SDS011;7419;52.184;5.944;2022-08-07T06:06:41;3.91;;;1.61;;